Home > Products > Valid Products > MTR

000
SAUS45 KMSO 282154
MTRP69
METAR KP69 282152Z AUTO 17006KT 16/04 A2993 RMK AO1 SLP131 T01560044





000
SAUS45 KMSO 282054
MTRP69
METAR KP69 282052Z AUTO 16007KT 15/04 A2993 RMK AO1 SLP133 T01500044
56009





000
SAUS45 KMSO 281954
MTRP69
METAR KP69 281952Z AUTO 16009KT 15/04 A2994 RMK AO1 SLP137 T01500039





000
SAUS45 KMSO 281854
MTRP69
METAR KP69 281852Z AUTO 16007G15KT 16/04 A2995 RMK AO1 SLP138
T01560039





000
SAUS45 KMSO 281854
MTRP69
METAR KP69 281852Z AUTO 16007G15KT 16/04 A2995 RMK AO1 SLP138
T01560039





000
SAUS45 KMSO 281754
MTRP69
METAR KP69 281752Z AUTO 00000KT 14/03 A2996 RMK AO1 SLP144 T01390028
10144 20067 56012





000
SAUS45 KMSO 281653
MTRP69
METAR KP69 281652Z AUTO 00000KT 13/03 A2997 RMK AO1 SLP146 T01330033





000
SAUS45 KMSO 281554
MTRP69
METAR KP69 281552Z AUTO 01003KT 11/04 A2998 RMK AO1 SLP153 T01060039





000
SAUS45 KMSO 281454
MTRP69
METAR KP69 281452Z AUTO 00000KT 08/05 A3000 RMK AO1 SLP160 T00780050
50009





000
SAUS45 KMSO 281454
MTRP69
METAR KP69 281452Z AUTO 00000KT 08/05 A3000 RMK AO1 SLP160 T00780050
50009





000
SAUS45 KMSO 281354
MTRP69
METAR KP69 281352Z AUTO 00000KT 07/04 A3000 RMK AO1 SLP160 T00670044





000
SAUS45 KMSO 281254
MTRP69
METAR KP69 281252Z AUTO 00000KT 07/04 A2998 RMK AO1 SLP152 T00670044





000
SAUS45 KMSO 281154
MTRP69
METAR KP69 281152Z AUTO 00000KT 07/05 A2997 RMK AO1 SLP143 70001
T00720050 10094 20072 51010





000
SAUS45 KMSO 281154
MTRP69
METAR KP69 281152Z AUTO 00000KT 07/05 A2997 RMK AO1 SLP143 70001
T00720050 10094 20072 51010





000
SAUS45 KMSO 281054
MTRP69
METAR KP69 281052Z AUTO VRB03KT 09/05 A2996 RMK AO1 SLP136 T00890050





000
SAUS45 KMSO 280953
MTRP69
METAR KP69 280952Z AUTO 00000KT 09/06 A2995 RMK AO1 SLP136 T00890056





000
SAUS45 KMSO 280953
MTRP69
METAR KP69 280952Z AUTO 00000KT 09/06 A2995 RMK AO1 SLP136 T00890056





000
SAUS45 KMSO 280853
MTRP69
METAR KP69 280852Z AUTO 00000KT 09/06 A2994 RMK AO1 SLP136 T00890061
53009





000
SAUS45 KMSO 280754
MTRP69
METAR KP69 280752Z AUTO 00000KT 09/06 A2993 RMK AO1 SLP129 T00890061
402220044





000
SAUS45 KMSO 280654
MTRP69
METAR KP69 280652Z AUTO VRB03KT 09/07 A2992 RMK AO1 SLP126 T00940067





000
SAUS45 KMSO 280553
MTRP69
METAR KP69 280552Z AUTO 35005KT 09/07 A2991 RMK AO1 SLP124 T00940072
10194 20094 51023





000
SAUS45 KMSO 280453
MTRP69
METAR KP69 280452Z AUTO 36004KT 10/07 A2989 RMK AO1 SLP121 T01000072





000
SAUS45 KMSO 280354
MTRP69
METAR KP69 280352Z AUTO 35003KT 11/08 A2987 RMK AO1 SLP117 T01060078





000
SAUS45 KMSO 280254
MTRP69
METAR KP69 280252Z AUTO 35004KT 12/08 A2984 RMK AO1 SLP107 T01220078
53015





000
SAUS45 KMSO 280154
MTRP69
METAR KP69 280152Z AUTO 00000KT 14/08 A2981 RMK AO1 SLP096 T01390078





000
SAUS45 KMSO 280054
MTRP69
METAR KP69 280052Z AUTO 00000KT 15/07 A2980 RMK AO1 SLP091 T01500067





000
SAUS45 KMSO 272354
MTRP69
METAR KP69 272352Z AUTO VRB04KT 20/04 A2979 RMK AO1 SLP084 60001
T02000039 10222 20139 55011





000
SAUS45 KMSO 272254
MTRP69
METAR KP69 272252Z AUTO VRB03KT 22/05 A2978 RMK AO1 SLP079 T02170050





000
SAUS45 KMSO 272154
MTRP69
METAR KP69 272152Z AUTO 00000KT 19/09 A2978 RMK AO1 SLP081 T01890089





000
SAUS45 KMSO 272054
MTRP69
METAR KP69 272052Z AUTO 00000KT 14/11 A2982 RMK AO1 SLP100 P0001
60001 T01440106 55005





000
SAUS45 KMSO 271954
MTRP69
METAR KP69 271952Z AUTO 14009KT 18/07 A2980 RMK AO1 SLP087 T01830067





000
SAUS45 KMSO 271954
MTRP69
METAR KP69 271952Z AUTO 14009KT 18/07 A2980 RMK AO1 SLP087 T01830067





000
SAUS45 KMSO 271854
MTRP69
METAR KP69 271852Z AUTO 17010G16KT 17/06 A2981 RMK AO1 SLP093
T01720056





000
SAUS45 KMSO 271854
MTRP69
METAR KP69 271852Z AUTO 17010G16KT 17/06 A2981 RMK AO1 SLP093
T01720056





000
SAUS45 KMSO 271754
MTRP69
METAR KP69 271752Z AUTO 16008KT 100V180 16/05 A2984 RMK AO1 SLP102
T01610050 10161 20044 58029





000
SAUS45 KMSO 271654
MTRP69
METAR KP69 271652Z AUTO 00000KT 13/05 A2987 RMK AO1 SLP114 T01280050





000
SAUS45 KMSO 271554
MTRP69
METAR KP69 271552Z AUTO 35003KT 08/05 A2990 RMK AO1 SLP129 T00830050





000
SAUS45 KMSO 271454
MTRP69
METAR KP69 271452Z AUTO 00000KT 06/04 A2993 RMK AO1 SLP140 T00560044
50000





000
SAUS45 KMSO 271353
MTRP69
METAR KP69 271352Z AUTO 00000KT 05/03 A2994 RMK AO1 SLP143 T00500033





000
SAUS45 KMSO 271253
MTRP69
METAR KP69 271252Z AUTO 32004KT 04/03 A2994 RMK AO1 SLP139 T00440033





000
SAUS45 KMSO 271253
MTRP69
METAR KP69 271252Z AUTO 32004KT 04/03 A2994 RMK AO1 SLP139 T00440033





000
SAUS45 KMSO 271154
MTRP69
METAR KP69 271152Z AUTO 35003KT 04/03 A2993 RMK AO1 SLP136 T00440033
10078 20044 53001





000
SAUS45 KMSO 271154
MTRP69
METAR KP69 271152Z AUTO 35003KT 04/03 A2993 RMK AO1 SLP136 T00440033
10078 20044 53001





000
SAUS45 KMSO 271053
MTRP69
METAR KP69 271052Z AUTO 00000KT 05/04 A2993 RMK AO1 SLP129 T00500039





000
SAUS45 KMSO 271053
MTRP69
METAR KP69 271052Z AUTO 00000KT 05/04 A2993 RMK AO1 SLP129 T00500039





000
SAUS45 KMSO 270954
MTRP69
METAR KP69 270952Z AUTO 00000KT 05/04 A2992 RMK AO1 SLP131 T00500039





000
SAUS45 KMSO 270853
MTRP69
METAR KP69 270852Z AUTO 00000KT 06/04 A2993 RMK AO1 SLP132 T00560044
51004





000
SAUS45 KMSO 270754
MTRP69
METAR KP69 270752Z AUTO 00000KT 06/05 A2993 RMK AO1 SLP132 T00610050
402220061





000
SAUS45 KMSO 270754
MTRP69
METAR KP69 270752Z AUTO 00000KT 06/05 A2993 RMK AO1 SLP132 T00610050
402220061





000
SAUS45 KMSO 270654
MTRP69
METAR KP69 270652Z AUTO 34003KT 07/06 A2992 RMK AO1 SLP131 T00720056





000
SAUS45 KMSO 270554
MTRP69
METAR KP69 270552Z AUTO 00000KT 08/06 A2991 RMK AO1 SLP128 T00780061
10167 20078 51009





000
SAUS45 KMSO 270454
MTRP69
METAR KP69 270452Z AUTO 00000KT 09/07 A2991 RMK AO1 SLP129 T00890067





000
SAUS45 KMSO 270354
MTRP69
METAR KP69 270352Z AUTO 00000KT 09/07 A2990 RMK AO1 SLP128 T00940072





000
SAUS45 KMSO 270254
MTRP69
METAR KP69 270252Z AUTO 35003KT 11/07 A2989 RMK AO1 SLP122 T01060072
53001





000
SAUS45 KMSO 270154
MTRP69
METAR KP69 270152Z AUTO 00000KT 12/08 A2987 RMK AO1 SLP116 T01220078





000
SAUS45 KMSO 270054
MTRP69
METAR KP69 270052Z AUTO 00000KT 15/06 A2988 RMK AO1 SLP117 T01500056





000
SAUS45 KMSO 262353
MTRP69
METAR KP69 262352Z AUTO 00000KT 17/06 A2988 RMK AO1 SLP116 T01670061
10222 20139 56021





000
SAUS45 KMSO 262353
MTRP69
METAR KP69 262352Z AUTO 00000KT 17/06 A2988 RMK AO1 SLP116 T01670061
10222 20139 56021





000
SAUS45 KMSO 262254
MTRP69
METAR KP69 262252Z AUTO 00000KT 21/04 A2990 RMK AO1 SLP117 T02110039





000
SAUS45 KMSO 262154
MTRP69
METAR KP69 262152Z AUTO 15005KT 18/03 A2992 RMK AO1 SLP126 T01830033





000
SAUS45 KMSO 262054
MTRP69
METAR KP69 262052Z AUTO 17005KT 17/03 A2995 RMK AO1 SLP137 T01720033
58022





000
SAUS45 KMSO 261954
MTRP69
METAR KP69 261952Z AUTO VRB03KT 17/03 A2997 RMK AO1 SLP148 T01670028





000
SAUS45 KMSO 261954
MTRP69
METAR KP69 261952Z AUTO VRB03KT 17/03 A2997 RMK AO1 SLP148 T01670028





000
SAUS45 KMSO 261853
MTRP69
METAR KP69 261852Z AUTO VRB05KT 16/02 A2999 RMK AO1 SLP154 T01610022





000
SAUS45 KMSO 261853
MTRP69
METAR KP69 261852Z AUTO VRB05KT 16/02 A2999 RMK AO1 SLP154 T01610022





000
SAUS45 KMSO 261753
MTRP69
METAR KP69 261752Z AUTO 17005KT 14/02 A3001 RMK AO1 SLP163 T01390022
10150 20072 58015





000
SAUS45 KMSO 261653
MTRP69
METAR KP69 261652Z AUTO 34003KT 12/02 A3003 RMK AO1 SLP171 T01220017





000
SAUS45 KMSO 261557 COR
MTRP69
METAR KP69 261552Z AUTO 17003KT 09/05 A3005 RMK AO1 SLP178 T00940050





000
SAUS45 KMSO 261554
MTRP69
METAR KP69 261552Z AUTO 17003KT 09/05 A3005 RMK AO1 SLP178 T00940050





000
SAUS45 KMSO 261454
MTRP69
METAR KP69 261452Z AUTO 00000KT 09/06 A3006 RMK AO1 SLP183 T00890056
50009





000
SAUS45 KMSO 261454
MTRP69
METAR KP69 261452Z AUTO 00000KT 09/06 A3006 RMK AO1 SLP183 T00890056
50009





000
SAUS45 KMSO 261354
MTRP69
METAR KP69 261352Z AUTO 00000KT 07/06 A3006 RMK AO1 SLP183 T00720056





000
SAUS45 KMSO 261254
MTRP69
METAR KP69 261252Z AUTO 00000KT 07/06 A3005 RMK AO1 SLP179 T00720056





000
SAUS45 KMSO 261154
MTRP69
METAR KP69 261152Z AUTO 00000KT 07/06 A3003 RMK AO1 SLP171 T00720061
10089 20072 53005





000
SAUS45 KMSO 261054
MTRP69
METAR KP69 261052Z AUTO 00000KT 08/06 A3003 RMK AO1 SLP169 T00780061





000
SAUS45 KMSO 260953
MTRP69
METAR KP69 260952Z AUTO 00000KT 08/06 A3002 RMK AO1 SLP165 T00780061





000
SAUS45 KMSO 260853
MTRP69
METAR KP69 260852Z AUTO 00000KT 08/06 A3002 RMK AO1 SLP164 T00780061
50003





000
SAUS45 KMSO 260853
MTRP69
METAR KP69 260852Z AUTO 00000KT 08/06 A3002 RMK AO1 SLP164 T00780061
50003





000
SAUS45 KMSO 260754
MTRP69
METAR KP69 260752Z AUTO 33003KT 08/06 A3002 RMK AO1 SLP167 T00780061
401500067





000
SAUS45 KMSO 260754
MTRP69
METAR KP69 260752Z AUTO 33003KT 08/06 A3002 RMK AO1 SLP167 T00780061
401500067





000
SAUS45 KMSO 260653
MTRP69
METAR KP69 260652Z AUTO 00000KT 08/07 A3002 RMK AO1 SLP166 T00830067





000
SAUS45 KMSO 260553
MTRP69
METAR KP69 260552Z AUTO 00000KT 08/07 A3001 RMK AO1 SLP165 T00830067
10133 20083 51015





000
SAUS45 KMSO 260553
MTRP69
METAR KP69 260552Z AUTO 00000KT 08/07 A3001 RMK AO1 SLP165 T00830067
10133 20083 51015





000
SAUS45 KMSO 260453
MTRP69
METAR KP69 260452Z AUTO 00000KT 08/07 A3000 RMK AO1 SLP162 T00830067





000
SAUS45 KMSO 260353
MTRP69
METAR KP69 260352Z AUTO 00000KT 09/07 A2999 RMK AO1 SLP159 T00890072





000
SAUS45 KMSO 260255
MTRGPI
METAR KGPI 260255Z 00000KT 10SM OVC065 10/07 A2989 RMK AO2 SLP132
T01000067 53010 $





000
SAUS45 KMSO 260254
MTRP69
METAR KP69 260252Z AUTO 00000KT 10/07 A2996 RMK AO1 SLP151 T01000072
53006





000
SAUS45 KMSO 260254
MTRP69
METAR KP69 260252Z AUTO 00000KT 10/07 A2996 RMK AO1 SLP151 T01000072
53006





000
SAUS45 KMSO 260207
MTRGPI
METAR KGPI 260155Z COR 31004KT 10SM FEW033 OVC100 11/07 A2988 RMK
AO2 SLP128 T01110067 $





000
SAUS45 KMSO 260207
MTRGPI
METAR KGPI 260155Z COR 31004KT 10SM FEW033 OVC100 11/07 A2988 RMK
AO2 SLP128 T01110067 $





000
SAUS45 KMSO 260158
MTRGPI
METAR KGPI 260155Z 31004KT 10SM FEW001 FEW033 OVC100 11/07 A2988 RMK
AO2 SLP128 T01110067 $





000
SAUS45 KMSO 260158
MTRGPI
METAR KGPI 260155Z 31004KT 10SM FEW001 FEW033 OVC100 11/07 A2988 RMK
AO2 SLP128 T01110067 $





000
SAUS45 KMSO 260154
MTRP69
METAR KP69 260152Z AUTO 35003KT 11/08 A2995 RMK AO1 SLP145 T01110078





000
SAUS45 KMSO 260058
MTRGPI
METAR KGPI 260055Z 36003KT 10SM OVC070 12/07 A2987 RMK AO2 SLP124
T01220072 $





000
SAUS45 KMSO 260054
MTRP69
METAR KP69 260052Z AUTO 00000KT 12/08 A2995 RMK AO1 SLP145 T01170078





000
SAUS45 KMSO 252358
MTRGPI
METAR KGPI 252355Z 35006KT 10SM OVC085 12/07 A2986 RMK AO2 RAB12E24
SLP121 P0000 60000 T01220067 10144 20100 55002 $





000
SAUS45 KMSO 252358
MTRGPI
METAR KGPI 252355Z 35006KT 10SM OVC085 12/07 A2986 RMK AO2 RAB12E24
SLP121 P0000 60000 T01220067 10144 20100 55002 $





000
SAUS45 KMSO 252354
MTRP69
METAR KP69 252352Z AUTO 00000KT 13/04 A2995 RMK AO1 SLP142 T01330039
10150 20100 55003





000
SAUS45 KMSO 252256
MTRGPI
METAR KGPI 252255Z 34005KT 10SM BKN070 OVC080 13/05 A2986 RMK AO2
SLP117 T01330050





000
SAUS45 KMSO 252253
MTRP69
METAR KP69 252252Z AUTO VRB03KT 13/04 A2994 RMK AO1 SLP140 T01330044





    US Dept of Commerce
    National Oceanic and Atmospheric Administration
    National Weather Service
    1325 East West Highway
    Silver Spring, MD 20910
    Page Author: NWS Internet Services Team
Disclaimer
Information Quality
Credits
Glossary
Privacy Policy
Freedom of Information Act (FOIA)
About Us
Career Opportunities